createdAt,value
2023-01-15T00:00:02.290Z,96057.22
2023-01-15T00:02:51.193Z,96043.16
2023-01-15T00:05:37.181Z,96058.34
2023-01-15T00:08:22.960Z,96067.34
2023-01-15T00:11:08.826Z,96058.50
2023-01-15T00:13:56.237Z,96053.34
2023-01-15T00:16:42.187Z,96055.16
2023-01-15T00:19:28.195Z,96058.97
2023-01-15T00:22:14.094Z,96055.16
2023-01-15T00:25:18.417Z,96030.16
2023-01-15T00:28:04.690Z,96051.53
2023-01-15T00:30:50.887Z,96050.81
2023-01-15T00:33:36.805Z,96044.13
2023-01-15T00:36:23.000Z,96060.19
2023-01-15T00:39:09.366Z,96039.81
2023-01-15T00:41:55.820Z,96049.53
2023-01-15T00:44:41.978Z,96033.03
2023-01-15T00:47:27.818Z,96018.00
2023-01-15T00:50:15.349Z,96045.88
2023-01-15T00:53:01.318Z,96047.88
2023-01-15T00:55:47.185Z,96041.00
2023-01-15T00:58:33.146Z,96038.50
2023-01-15T01:01:19.234Z,96036.53
2023-01-15T01:04:05.432Z,96051.19
2023-01-15T01:06:51.394Z,96051.34
2023-01-15T01:09:37.311Z,96040.19
2023-01-15T01:12:23.800Z,96022.19
2023-01-15T01:15:10.057Z,96038.88
2023-01-15T01:17:56.381Z,96038.88
2023-01-15T01:20:42.189Z,96033.84
2023-01-15T01:23:29.679Z,96031.91
2023-01-15T01:26:16.416Z,96025.88
2023-01-15T01:29:03.295Z,96007.22
2023-01-15T01:31:51.247Z,96019.41
2023-01-15T01:34:37.926Z,96018.88
2023-01-15T01:37:24.723Z,96019.25
2023-01-15T01:40:11.289Z,95999.44
2023-01-15T01:42:57.030Z,96005.44
2023-01-15T01:45:42.797Z,96010.59
2023-01-15T01:48:31.868Z,96002.44
2023-01-15T01:51:19.112Z,95994.94
2023-01-15T01:54:05.036Z,95982.25
2023-01-15T01:56:51.605Z,95992.44
2023-01-15T01:59:38.773Z,95986.75
2023-01-15T02:02:24.677Z,96002.09
2023-01-15T02:05:14.389Z,96000.41
2023-01-15T02:08:01.095Z,95999.97
2023-01-15T02:10:52.906Z,95989.63
2023-01-15T02:14:04.568Z,95995.09
2023-01-15T02:17:13.927Z,95989.94
2023-01-15T02:20:02.698Z,95990.13
2023-01-15T02:22:48.368Z,95995.47
2023-01-15T02:25:43.944Z,95987.66
2023-01-15T02:28:41.136Z,95984.47
2023-01-15T02:31:39.318Z,95991.13
2023-01-15T02:34:34.677Z,95984.28
2023-01-15T02:37:29.895Z,95972.50
2023-01-15T02:40:19.010Z,95972.81
2023-01-15T02:43:09.795Z,95983.00
2023-01-15T02:45:58.732Z,95970.97
2023-01-15T02:48:52.408Z,95963.09
2023-01-15T02:51:49.459Z,95978.84
2023-01-15T02:54:44.317Z,95971.69
2023-01-15T02:57:33.476Z,95976.16
2023-01-15T03:00:20.114Z,95977.97
2023-01-15T03:03:49.587Z,95965.09
2023-01-15T03:06:41.136Z,95969.97
2023-01-15T03:09:28.089Z,95979.78
2023-01-15T03:12:28.148Z,95962.44
2023-01-15T03:15:41.356Z,95963.09
2023-01-15T03:18:29.539Z,95970.63
2023-01-15T03:21:27.110Z,95956.41
2023-01-15T03:24:15.451Z,95965.81
2023-01-15T03:27:02.726Z,95968.94
2023-01-15T03:29:53.105Z,95948.78
2023-01-15T03:32:39.664Z,95943.59
2023-01-15T03:35:52.708Z,95948.25
2023-01-15T03:38:50.788Z,95957.78
2023-01-15T03:42:24.416Z,95963.56
2023-01-15T03:45:12.931Z,95972.63
2023-01-15T03:48:08.067Z,95964.63
2023-01-15T03:51:09.109Z,95956.41
2023-01-15T03:53:58.162Z,95959.09
2023-01-15T03:56:55.747Z,95957.59
2023-01-15T03:59:50.871Z,95934.41
2023-01-15T04:02:37.754Z,95958.94
2023-01-15T04:05:25.764Z,95929.25
2023-01-15T04:08:12.944Z,95944.97
2023-01-15T04:11:00.600Z,95946.09
2023-01-15T04:13:51.344Z,95923.56
2023-01-15T04:16:48.278Z,95939.91
2023-01-15T04:19:34.189Z,95950.91
2023-01-15T04:22:23.652Z,95937.75
2023-01-15T04:25:13.758Z,95946.41
2023-01-15T04:27:59.949Z,95933.28
2023-01-15T04:30:46.539Z,95948.91
2023-01-15T04:33:32.303Z,95954.09
2023-01-15T04:36:18.123Z,95946.94
2023-01-15T04:39:05.134Z,95949.44
2023-01-15T04:42:09.676Z,95949.91
2023-01-15T04:44:55.755Z,95950.59
2023-01-15T04:47:41.732Z,95940.88
2023-01-15T04:50:28.682Z,95958.72
2023-01-15T04:53:14.815Z,95955.84
2023-01-15T04:56:02.305Z,95949.00
2023-01-15T04:58:49.321Z,95946.81
2023-01-15T05:01:35.803Z,95952.00
2023-01-15T05:04:22.595Z,95959.97
2023-01-15T05:07:09.726Z,95960.81
2023-01-15T05:09:55.710Z,95950.09
2023-01-15T05:12:41.642Z,95954.75
2023-01-15T05:15:27.468Z,95954.06
2023-01-15T05:18:16.064Z,95952.75
2023-01-15T05:21:01.802Z,95953.69
2023-01-15T05:23:48.675Z,95957.19
2023-01-15T05:26:35.412Z,95945.63
2023-01-15T05:29:21.386Z,95958.00
2023-01-15T05:32:09.516Z,95952.84
2023-01-15T05:34:55.606Z,95946.69
2023-01-15T05:37:41.422Z,95951.31
2023-01-15T05:40:27.376Z,95951.19
2023-01-15T05:43:13.329Z,95962.66
2023-01-15T05:46:02.319Z,95950.84
2023-01-15T05:48:48.514Z,95948.06
2023-01-15T05:51:36.367Z,95956.72
2023-01-15T05:54:25.095Z,95942.22
2023-01-15T05:57:12.969Z,95947.69
2023-01-15T05:59:59.240Z,95933.16
2023-01-15T06:02:49.118Z,95946.69
2023-01-15T06:05:34.828Z,95938.03
2023-01-15T06:08:21.960Z,95942.69
2023-01-15T06:11:07.834Z,95946.69
2023-01-15T06:13:53.848Z,95938.03
2023-01-15T06:16:41.322Z,95944.22
2023-01-15T06:19:28.005Z,95945.03
2023-01-15T06:22:13.949Z,95947.22
2023-01-15T06:24:59.836Z,95938.56
2023-01-15T06:27:45.872Z,95941.09
2023-01-15T06:30:31.792Z,95951.94
2023-01-15T06:33:17.681Z,95944.13
2023-01-15T06:36:08.780Z,95941.28
2023-01-15T06:38:55.354Z,95951.75
2023-01-15T06:41:59.897Z,95948.97
2023-01-15T06:45:04.693Z,95949.94
2023-01-15T06:47:50.719Z,95954.13
2023-01-15T06:50:36.641Z,95951.16
2023-01-15T06:53:23.002Z,95939.81
2023-01-15T06:56:09.125Z,95938.16
2023-01-15T06:58:56.577Z,95947.34
2023-01-15T07:01:42.858Z,95940.34
2023-01-15T07:04:28.719Z,95939.19
2023-01-15T07:07:19.587Z,95933.22
2023-01-15T07:10:06.189Z,95934.03
2023-01-15T07:12:52.309Z,95938.53
2023-01-15T07:15:39.700Z,95933.50
2023-01-15T07:18:26.623Z,95939.38
2023-01-15T07:21:12.852Z,95940.34
2023-01-15T07:23:59.710Z,95940.88
2023-01-15T07:26:46.084Z,95932.56
2023-01-15T07:29:31.881Z,95931.09
2023-01-15T07:32:17.989Z,95916.81
2023-01-15T07:35:04.870Z,95933.38
2023-01-15T07:37:53.856Z,95947.50
2023-01-15T07:40:39.717Z,95922.31
2023-01-15T07:43:57.993Z,95914.16
2023-01-15T07:47:03.659Z,95927.81
2023-01-15T07:49:52.107Z,95935.34
2023-01-15T07:52:38.284Z,95923.97
2023-01-15T07:55:24.642Z,95936.34
2023-01-15T07:58:10.629Z,95921.22
2023-01-15T08:00:56.430Z,95929.41
2023-01-15T08:03:42.368Z,95923.41
2023-01-15T08:06:28.098Z,95902.84
2023-01-15T08:09:14.030Z,95923.41
2023-01-15T08:12:19.505Z,95917.97
2023-01-15T08:15:14.945Z,95917.97
2023-01-15T08:18:01.082Z,95904.50
2023-01-15T08:20:47.364Z,95915.72
2023-01-15T08:23:33.599Z,95924.06
2023-01-15T08:26:19.302Z,95912.28
2023-01-15T08:29:05.063Z,95898.81
2023-01-15T08:31:51.049Z,95916.84
2023-01-15T08:34:36.957Z,95926.38
2023-01-15T08:37:25.271Z,95913.91
2023-01-15T08:40:12.757Z,95910.63
2023-01-15T08:42:58.657Z,95906.13
2023-01-15T08:45:44.401Z,95891.66
2023-01-15T08:48:31.982Z,95890.22
2023-01-15T08:51:18.074Z,95892.75
2023-01-15T08:54:04.108Z,95897.09
2023-01-15T08:56:50.206Z,95894.44
2023-01-15T08:59:35.971Z,95900.75
2023-01-15T09:02:22.034Z,95887.78
2023-01-15T09:05:08.130Z,95894.66
2023-01-15T09:07:55.057Z,95892.16
2023-01-15T09:10:40.792Z,95884.31
2023-01-15T09:13:27.681Z,95866.81
2023-01-15T09:16:13.597Z,95862.31
2023-01-15T09:18:59.294Z,95877.16
2023-01-15T09:21:45.138Z,95860.00
2023-01-15T09:24:31.011Z,95852.81
2023-01-15T09:27:17.017Z,95862.69
2023-01-15T09:30:02.873Z,95861.66
2023-01-15T09:32:49.249Z,95855.34
2023-01-15T09:35:35.090Z,95854.16
2023-01-15T09:38:21.958Z,95845.81
2023-01-15T09:41:31.951Z,95853.19
2023-01-15T09:44:37.597Z,95843.00
2023-01-15T09:47:28.047Z,95856.69
2023-01-15T09:50:51.557Z,95844.19
2023-01-15T09:54:05.778Z,95832.84
2023-01-15T09:56:52.115Z,95828.47
2023-01-15T09:59:43.700Z,95811.19
2023-01-15T10:02:32.770Z,95822.13
2023-01-15T10:05:24.696Z,95807.81
2023-01-15T10:08:21.128Z,95808.66
2023-01-15T10:11:23.577Z,95810.16
2023-01-15T10:14:12.727Z,95790.50
2023-01-15T10:16:59.027Z,95790.63
2023-01-15T10:19:45.161Z,95800.78
2023-01-15T10:22:40.157Z,95798.13
2023-01-15T10:25:29.474Z,95803.47
2023-01-15T10:28:28.656Z,95785.28
2023-01-15T10:31:24.678Z,95789.81
2023-01-15T10:34:25.977Z,95787.97
2023-01-15T10:37:22.216Z,95777.13
2023-01-15T10:40:33.250Z,95781.28
2023-01-15T10:43:41.001Z,95776.47
2023-01-15T10:46:33.639Z,95773.44
2023-01-15T10:49:19.775Z,95749.78
2023-01-15T10:52:29.249Z,95755.25
2023-01-15T10:55:25.845Z,95756.19
2023-01-15T10:58:35.764Z,95734.88
2023-01-15T11:01:24.310Z,95745.50
2023-01-15T11:04:13.485Z,95731.63
2023-01-15T11:07:01.259Z,95736.09
2023-01-15T11:09:47.256Z,95729.94
2023-01-15T11:12:53.283Z,95742.16
2023-01-15T11:15:58.331Z,95730.47
2023-01-15T11:19:03.536Z,95733.81
2023-01-15T11:21:50.323Z,95721.25
2023-01-15T11:24:47.799Z,95719.41
2023-01-15T11:27:34.499Z,95716.16
2023-01-15T11:30:32.714Z,95706.66
2023-01-15T11:33:24.491Z,95703.94
2023-01-15T11:36:22.825Z,95697.38
2023-01-15T11:39:30.880Z,95696.69
2023-01-15T11:42:35.847Z,95680.78
2023-01-15T11:45:41.685Z,95682.84
2023-01-15T11:48:46.371Z,95682.78
2023-01-15T11:51:41.989Z,95682.63
2023-01-15T11:54:30.044Z,95670.53
2023-01-15T11:57:27.637Z,95669.97
2023-01-15T12:00:33.327Z,95664.72
2023-01-15T12:03:23.035Z,95650.81
2023-01-15T12:06:12.055Z,95653.03
2023-01-15T12:09:33.672Z,95649.34
2023-01-15T12:12:27.677Z,95649.06
2023-01-15T12:15:31.867Z,95646.88
2023-01-15T12:18:45.635Z,95638.94
2023-01-15T12:21:53.576Z,95643.56
2023-01-15T12:24:48.749Z,95640.63
2023-01-15T12:28:20.034Z,95636.56
2023-01-15T12:31:16.616Z,95628.16
2023-01-15T12:34:18.229Z,95607.13
2023-01-15T12:37:15.072Z,95627.50
2023-01-15T12:40:24.465Z,95615.78
2023-01-15T12:43:38.429Z,95605.00
2023-01-15T12:46:31.439Z,95603.44
2023-01-15T12:49:26.329Z,95606.72
2023-01-15T12:52:18.044Z,95592.38
2023-01-15T12:55:14.673Z,95593.63
2023-01-15T12:58:01.555Z,95578.59
2023-01-15T13:00:48.769Z,95583.84
2023-01-15T13:03:49.340Z,95575.72
2023-01-15T13:06:35.964Z,95576.59
2023-01-15T13:09:38.829Z,95577.50
2023-01-15T13:12:25.642Z,95568.16
2023-01-15T13:15:19.100Z,95566.91
2023-01-15T13:18:23.307Z,95550.75
2023-01-15T13:21:20.481Z,95565.91
2023-01-15T13:24:18.593Z,95558.25
2023-01-15T13:27:37.116Z,95565.25
2023-01-15T13:30:49.260Z,95563.19
2023-01-15T13:33:42.715Z,95540.44
2023-01-15T13:36:33.559Z,95543.72
2023-01-15T13:39:22.224Z,95539.75
2023-01-15T13:42:32.953Z,95537.00
2023-01-15T13:45:19.154Z,95529.00
2023-01-15T13:48:18.589Z,95512.03
2023-01-15T13:51:06.394Z,95532.41
2023-01-15T13:53:52.988Z,95506.41
2023-01-15T13:56:40.056Z,95528.88
2023-01-15T13:59:38.755Z,95525.41
2023-01-15T14:02:25.545Z,95527.88
2023-01-15T14:05:28.228Z,95536.63
2023-01-15T14:08:17.443Z,95530.22
2023-01-15T14:11:03.865Z,95532.50
2023-01-15T14:14:23.385Z,95534.59
2023-01-15T14:17:34.119Z,95532.41
2023-01-15T14:20:23.410Z,95538.72
2023-01-15T14:23:28.501Z,95518.63
2023-01-15T14:26:25.039Z,95530.66
2023-01-15T14:29:34.875Z,95512.50
2023-01-15T14:32:44.970Z,95528.00
2023-01-15T14:35:36.733Z,95523.63
2023-01-15T14:38:27.349Z,95520.44
2023-01-15T14:41:13.713Z,95521.38
2023-01-15T14:44:03.130Z,95506.75
2023-01-15T14:47:01.637Z,95527.75
2023-01-15T14:49:50.219Z,95523.31
2023-01-15T14:52:36.484Z,95523.00
2023-01-15T14:55:22.610Z,95525.59
2023-01-15T14:58:17.730Z,95527.13
2023-01-15T15:01:27.713Z,95527.91
2023-01-15T15:04:20.069Z,95525.34
2023-01-15T15:07:12.512Z,95515.50
2023-01-15T15:10:10.961Z,95501.25
2023-01-15T15:13:18.978Z,95528.94
2023-01-15T15:16:08.765Z,95520.53
2023-01-15T15:19:00.421Z,95522.69
2023-01-15T15:21:47.454Z,95527.16
2023-01-15T15:24:37.388Z,95528.28
2023-01-15T15:27:23.924Z,95525.50
2023-01-15T15:30:12.242Z,95510.22
2023-01-15T15:32:58.160Z,95519.63
2023-01-15T15:35:50.523Z,95516.97
2023-01-15T15:38:40.428Z,95521.47
2023-01-15T15:41:48.416Z,95505.03
2023-01-15T15:45:10.467Z,95519.63
2023-01-15T15:48:15.434Z,95509.13
2023-01-15T15:51:02.999Z,95504.13
2023-01-15T15:53:48.827Z,95507.34
2023-01-15T15:56:35.163Z,95519.88
2023-01-15T15:59:33.002Z,95497.75
2023-01-15T16:02:31.576Z,95517.97
2023-01-15T16:05:24.118Z,95493.44
2023-01-15T16:08:16.310Z,95518.41
2023-01-15T16:11:12.157Z,95517.63
2023-01-15T16:14:01.715Z,95519.03
2023-01-15T16:16:49.580Z,95504.47
2023-01-15T16:19:35.682Z,95518.09
2023-01-15T16:22:22.348Z,95504.53
2023-01-15T16:25:22.085Z,95505.69
2023-01-15T16:28:24.005Z,95524.84
2023-01-15T16:31:11.491Z,95525.75
2023-01-15T16:33:58.561Z,95518.09
2023-01-15T16:36:45.651Z,95529.59
2023-01-15T16:39:40.936Z,95541.00
2023-01-15T16:42:34.624Z,95506.94
2023-01-15T16:45:27.509Z,95529.88
2023-01-15T16:48:31.187Z,95531.50
2023-01-15T16:51:36.478Z,95534.81
2023-01-15T16:54:31.747Z,95535.84
2023-01-15T16:57:29.882Z,95530.72
2023-01-15T17:00:30.681Z,95517.13
2023-01-15T17:03:19.958Z,95523.25
2023-01-15T17:06:13.231Z,95521.28
2023-01-15T17:08:59.497Z,95531.78
2023-01-15T17:11:50.234Z,95525.19
2023-01-15T17:14:35.923Z,95535.19
2023-01-15T17:17:21.841Z,95533.06
2023-01-15T17:20:12.811Z,95532.22
2023-01-15T17:22:58.864Z,95527.75
2023-01-15T17:25:47.245Z,95530.59
2023-01-15T17:28:33.519Z,95528.63
2023-01-15T17:31:31.182Z,95529.63
2023-01-15T17:34:23.515Z,95523.16
2023-01-15T17:37:09.922Z,95462.88
2023-01-15T17:39:57.557Z,95528.19
2023-01-15T17:42:43.993Z,95482.16
2023-01-15T17:45:31.820Z,95524.19
2023-01-15T17:48:18.555Z,95531.34
2023-01-15T17:51:06.940Z,95527.56
2023-01-15T17:53:53.039Z,95528.75
2023-01-15T17:56:57.451Z,95504.59
2023-01-15T18:00:02.000Z,95511.94
2023-01-15T18:03:16.774Z,95514.75
2023-01-15T18:06:03.053Z,95517.13
2023-01-15T18:08:53.642Z,95506.66
2023-01-15T18:11:39.692Z,95514.13
2023-01-15T18:14:26.580Z,95511.97
2023-01-15T18:17:12.849Z,95508.34
2023-01-15T18:19:58.648Z,95513.31
2023-01-15T18:22:44.599Z,95520.84
2023-01-15T18:25:30.410Z,95502.03
2023-01-15T18:28:16.396Z,95509.56
2023-01-15T18:31:03.314Z,95516.19
2023-01-15T18:33:49.519Z,95505.25
2023-01-15T18:36:35.299Z,95513.38
2023-01-15T18:39:21.463Z,95498.09
2023-01-15T18:42:07.294Z,95512.22
2023-01-15T18:45:11.879Z,95519.19
2023-01-15T18:48:01.183Z,95514.56
2023-01-15T18:50:48.895Z,95517.22
2023-01-15T18:53:35.180Z,95522.88
2023-01-15T18:56:39.061Z,95525.56
2023-01-15T18:59:24.898Z,95534.03
2023-01-15T19:02:10.964Z,95525.72
2023-01-15T19:04:56.633Z,95525.06
2023-01-15T19:07:46.277Z,95530.53
2023-01-15T19:10:32.594Z,95522.75
2023-01-15T19:13:19.504Z,95517.25
2023-01-15T19:16:24.991Z,95491.63
2023-01-15T19:19:11.517Z,95511.59
2023-01-15T19:22:16.177Z,95511.09
2023-01-15T19:25:02.558Z,95509.94
2023-01-15T19:27:50.059Z,95481.16
2023-01-15T19:30:38.383Z,95501.63
2023-01-15T19:33:24.537Z,95500.47
2023-01-15T19:36:10.677Z,95487.16
2023-01-15T19:38:56.595Z,95485.97
2023-01-15T19:42:00.861Z,95497.81
2023-01-15T19:45:05.561Z,95485.47
2023-01-15T19:48:10.220Z,95492.47
2023-01-15T19:50:56.559Z,95489.13
2023-01-15T19:53:42.874Z,95488.63
2023-01-15T19:56:28.949Z,95489.81
2023-01-15T19:59:18.235Z,95478.50
2023-01-15T20:02:04.462Z,95482.16
2023-01-15T20:04:50.944Z,95481.31
2023-01-15T20:07:37.982Z,95481.50
2023-01-15T20:10:26.674Z,95483.47
2023-01-15T20:13:38.037Z,95481.00
2023-01-15T20:16:25.660Z,95478.19
2023-01-15T20:19:11.838Z,95472.03
2023-01-15T20:21:58.048Z,95474.50
2023-01-15T20:24:44.564Z,95465.53
2023-01-15T20:27:32.442Z,95473.19
2023-01-15T20:30:23.195Z,95489.13
2023-01-15T20:33:09.910Z,95476.16
2023-01-15T20:35:55.966Z,95470.34
2023-01-15T20:38:42.431Z,95487.97
2023-01-15T20:41:47.183Z,95488.28
2023-01-15T20:44:51.770Z,95480.13
2023-01-15T20:47:58.197Z,95465.50
2023-01-15T20:51:04.396Z,95482.13
2023-01-15T20:53:51.594Z,95469.16
2023-01-15T20:56:37.710Z,95475.50
2023-01-15T20:59:23.670Z,95490.09
2023-01-15T21:02:15.626Z,95477.94
2023-01-15T21:05:01.552Z,95480.78
2023-01-15T21:07:47.602Z,95478.44
2023-01-15T21:10:33.581Z,95476.59
2023-01-15T21:13:22.917Z,95469.13
2023-01-15T21:16:09.936Z,95466.28
2023-01-15T21:18:56.380Z,95486.56
2023-01-15T21:21:42.157Z,95479.91
2023-01-15T21:24:28.357Z,95494.03
2023-01-15T21:27:15.226Z,95494.03
2023-01-15T21:30:01.240Z,95474.25
2023-01-15T21:32:48.651Z,95477.91
2023-01-15T21:35:38.904Z,95487.84
2023-01-15T21:38:24.746Z,95483.72
2023-01-15T21:41:12.849Z,95466.56
2023-01-15T21:44:17.443Z,95479.88
2023-01-15T21:47:11.080Z,95482.53
2023-01-15T21:49:57.698Z,95486.81
2023-01-15T21:52:43.851Z,95486.28
2023-01-15T21:55:30.080Z,95488.94
2023-01-15T21:58:16.393Z,95491.47
2023-01-15T22:01:08.524Z,95473.97
2023-01-15T22:03:54.733Z,95482.94
2023-01-15T22:06:40.636Z,95499.38
2023-01-15T22:09:26.469Z,95471.53
2023-01-15T22:12:13.178Z,95485.25
2023-01-15T22:14:59.229Z,95483.41
2023-01-15T22:17:45.314Z,95487.53
2023-01-15T22:20:31.585Z,95490.16
2023-01-15T22:23:17.482Z,95494.97
2023-01-15T22:26:03.359Z,95488.00
2023-01-15T22:28:49.451Z,95503.25
2023-01-15T22:31:35.338Z,95496.59
2023-01-15T22:34:22.495Z,95491.44
2023-01-15T22:37:08.795Z,95493.59
2023-01-15T22:39:55.379Z,95483.28
2023-01-15T22:42:41.298Z,95458.69
2023-01-15T22:45:27.380Z,95473.59
2023-01-15T22:48:13.766Z,95456.34
2023-01-15T22:50:59.793Z,95458.16
2023-01-15T22:53:45.743Z,95457.16
2023-01-15T22:56:31.507Z,95441.53
2023-01-15T22:59:17.624Z,95427.56
2023-01-15T23:02:03.974Z,95427.56
2023-01-15T23:04:50.295Z,95444.50
2023-01-15T23:07:39.853Z,95446.84
2023-01-15T23:10:26.938Z,95446.19
2023-01-15T23:13:13.622Z,95448.13
2023-01-15T23:16:00.902Z,95454.44
2023-01-15T23:18:47.051Z,95444.28
2023-01-15T23:21:33.785Z,95450.13
2023-01-15T23:24:19.591Z,95450.44
2023-01-15T23:27:05.622Z,95450.06
2023-01-15T23:29:51.486Z,95449.44
2023-01-15T23:32:39.659Z,95442.63
2023-01-15T23:35:25.968Z,95422.56
2023-01-15T23:38:12.365Z,95400.94
2023-01-15T23:40:58.278Z,95427.03
2023-01-15T23:44:02.509Z,95431.81
2023-01-15T23:46:48.553Z,95420.00
2023-01-15T23:49:34.522Z,95419.34
2023-01-15T23:52:20.651Z,95423.81
2023-01-15T23:55:07.109Z,95426.63
2023-01-15T23:57:53.207Z,95420.59
